x

Portland 12 Nm Southeast Of Portland,me (44007) Wave Buoy

7:50 - Fri 26th May 2017 All times are EDT. -4 hours from GMT.

  • Sig Wave height 8.9ft
  • Swell Direction
  • Peak Period 8s
  • Average Period 6s
  • Wind
    22mph, 31mph gusts
  • Sea Temp 47°f
  • Ar Temp 48°f
  • Sea Pressure 999.1mb
  • Portland 12 Nm Southeast Of Portland,me
  • Portland 12 Nm Southeast Of Portland,me

More Historic Weather Station data

Upgrade to MSW Pro to gain access to the past 30 days of data for over 8000 Wavebouys and Weather Stations around the globe.

Join Pro

Comparision Forecast

View Surf forecast
   
Sex 05/26 7:50 9ft 8s 6s 22 31 mph 999.1mb 47f 48f
6:50 8.5ft 8s 6s 29 34 mph 999.2mb 48f 48f
5:50 9ft 8s 6s 31 38 mph 999.4mb 47f 47f
4:50 10ft 8s 6s 25 31 mph 1001.6mb 48f 47f
3:50 9ft 8s 6s 16 20 mph 1003.5mb 48f 46f
2:50 9ft 8s 6s 29 34 mph 1001mb 48f 47f
1:50 10ft 8s 6s 27 31 mph 1002.6mb 49f 47f
12:50 9ft 8s 6s 20 25 mph 1004.9mb 49f 47f
Qui 05/25 11:50 10ft 8s 6s 18 22 mph 1005.9mb 49f 48f
10:50 9ft 8s 6s 13 20 mph 1007.2mb 49f 48f
9:50 8.5ft 8s 6s 29 36 mph 1006.3mb 50f 49f
8:50 7.5ft 6s 5s 27 34 mph 1007.2mb 51f 49f
7:50 7.5ft 6s 5s 31 38 mph 1007.3mb 51f 49f
6:50 6.5ft 5s 5s 31 38 mph 1007.7mb 52f 50f
5:50 5.5ft 5s 5s 29 36 mph 1009mb 52f 50f
4:50 5ft 5s 4s 27 34 mph 1009.8mb 52f 50f
3:50 4ft 4s 4s 22 27 mph 1010.7mb 52f 51f
2:50 4ft 9s 4s 22 29 mph 1011.1mb 51f 51f
1:50 3.5ft 9s 4s 22 27 mph 1011.6mb 51f 50f
12:50 3.5ft 9s 4s 22 27 mph 1011.8mb 52f 51f
11:50 3.5ft 9s 5s 20 22 mph 1012.1mb 53f 51f
10:50 3.5ft 7s 6s 16 20 mph 1012.8mb 53f 51f
9:50 4ft 8s 6s 13 16 mph 1013.1mb 53f 52f
8:50 3.5ft 8s 7s 11 13 mph 1013.4mb 53f 53f
7:50 4ft 8s 7s 9 11 mph 1013.5mb 53f 53f
6:50 3ft 7s 7s 9 9 mph 1013.4mb 52f 53f
5:50 2.5ft 8s 7s 7 9 mph 1013.2mb 52f 52f
4:50 2.5ft 8s 6s 7 7 mph 1012.4mb 52f 52f
3:50 2.5ft 8s 6s 7 7 mph 1011.9mb 52f 52f
2:50 2.5ft 6s 6s 4 4 mph 1012.1mb 52f 52f
1:50 2.5ft 6s 6s  -  2 mph 1012.8mb 53f 52f
12:50 2.5ft 6s 6s 2 2 mph 1012.1mb 53f 52f
Qua 05/24 11:50 3ft 8s 6s 2 2 mph 1011.7mb 53f 53f
10:50 3.5ft 7s 6s 4 4 mph 1011.9mb 53f 52f
9:50 3.5ft 7s 7s 7 7 mph 1011.3mb 53f 53f
8:50 3.5ft 8s 7s 7 7 mph 1010.5mb 53f 53f
7:50 3ft 7s 7s 7 9 mph 1009.8mb 54f 54f
6:50 2.5ft 7s 6s 2 4 mph 1010.3mb 54f 54f
5:50 2.5ft 8s 6s 7 9 mph 1010.1mb 54f 53f
4:50 2ft 7s 6s 2 4 mph 1009.2mb 53f 54f
3:50 2ft 8s 6s 7 7 mph 1009.2mb 53f 53f
2:50 2ft 8s 6s 9 11 mph 1009.7mb 53f 53f
1:50 2ft 7s 6s 7 9 mph 1009.5mb 54f 54f
12:50 2ft 7s 6s 4 4 mph 1009.3mb 54f 56f
11:50 2ft 7s 6s 4 4 mph 1009.2mb 53f 54f
10:50 1.3ft 7s 5s 7 9 mph 1008.9mb 52f 53f
9:50 1.3ft 8s 5s 7 9 mph 1008.8mb 51f 52f
8:50 1.3ft 6s 5s 7 7 mph 1008.9mb 50f 51f
7:50 1.3ft 6s 5s 7 7 mph 1008.9mb 49f 50f
6:50 1.6ft 5s 5s 7 7 mph 1008.8mb 49f 50f
5:50 1.6ft 6s 4s 7 9 mph 1008.7mb 49f 49f
4:50 1.6ft 6s 4s 2 2 mph 1008.4mb 49f 50f
3:50 1.6ft 6s 5s 4 4 mph 1008.5mb 49f 50f
2:50 2ft 5s 5s 2 2 mph 1009.1mb 49f 51f
1:50 1.6ft 5s 5s 2 2 mph 1008.8mb 49f 51f
12:50 2ft 6s 5s 7 9 mph 1008.9mb 50f 52f
Ter 05/23 11:50 2ft 6s 5s 9 11 mph 1009.1mb 50f 53f
10:50 1.6ft 6s 5s 11 13 mph 1009mb 51f 53f
9:50 1.6ft 6s 5s 7 9 mph 1009.1mb 50f 53f
8:50 2ft 6s 5s 9 11 mph 1009mb 50f 53f
7:50 2ft 6s  -  7 9 mph 1008.9mb 50f 53f
6:50 2ft 6s 5s 11 13 mph 1009.1mb 51f 53f
5:50 2.5ft 6s 6s 9 9 mph 1009.1mb 51f 53f
4:50 2.5ft 6s 6s 9 9 mph 1009.3mb 51f 53f
3:50 2.5ft 6s 6s 7 9 mph 1009.6mb 51f 53f
2:50 2.5ft 6s 6s 4 7 mph 1010.1mb 51f 53f
1:50 2.5ft 7s 6s 7 9 mph 1010.9mb 52f 53f
12:50 2.5ft 6s 5s 4 7 mph 1011.9mb 52f 53f
11:50 2ft 6s 5s  -  2 mph 1012.3mb 52f 53f
10:50 2ft 5s 5s  -  2 mph 1012.5mb 51f 52f
9:50 2.5ft 5s 5s 2 4 mph 1012.9mb 50f 50f
8:50 2.5ft 5s 5s 7 9 mph 1012.9mb 50f 49f
7:50 2.5ft 5s 5s 4 7 mph 1013.3mb 50f 49f
6:50 2.5ft 5s 5s 7 9 mph 1013.1mb 50f 49f
5:50 2.5ft 5s 4s 7 7 mph 1013.2mb 50f 49f
4:50 2ft 4s 4s 4 4 mph 1013.2mb 49f 49f
3:50 1.6ft 4s 4s  -  2 mph 1013.4mb 50f 49f
2:50 2ft 5s 4s 4 4 mph 1013.8mb 50f 49f
1:50 2ft 4s 4s 7 9 mph 1014.3mb 50f 49f
12:50 2ft 4s 4s 11 11 mph 1014.7mb 50f 49f
Seg 05/22 11:50 2.5ft 5s 4s 11 13 mph 1015.7mb 50f 49f
10:50 2.5ft 5s 4s 13 18 mph 1016.1mb 51f 49f
9:50 2.5ft 5s 4s 16 18 mph 1016.9mb 51f 49f
8:50 2.5ft 4s 4s 16 18 mph 1017.1mb 50f 49f
7:50 2.5ft 4s 4s 16 18 mph 1017.4mb 49f 48f
6:50 3ft 5s 4s 16 20 mph 1018.2mb 50f 48f
5:50 3ft 4s 4s 18 22 mph 1018.4mb 50f 49f
4:50 2.5ft 4s 4s 16 18 mph 1019mb 50f 50f
3:50 2.5ft 3s 3s 16 20 mph 1019.6mb 50f 51f
2:50 1.3ft 3s 3s 18 22 mph 1019.9mb 50f 52f
1:50 1ft 8s 4s 13 16 mph 1021.1mb 50f 52f